sensor_id;sensor_type;location;lat;lon;timestamp;pressure;altitude;pressure_sealevel;temperature;humidity
9139;BME280;4604;48.616;9.548;2023-02-04T00:01:58;98102.75;;;5.75;100.00
9139;BME280;4604;48.616;9.548;2023-02-04T00:04:24;98108.16;;;5.72;100.00
9139;BME280;4604;48.616;9.548;2023-02-04T00:06:52;98087.84;;;5.93;100.00
9139;BME280;4604;48.616;9.548;2023-02-04T00:09:19;98096.59;;;5.94;100.00
9139;BME280;4604;48.616;9.548;2023-02-04T00:11:45;98102.72;;;5.93;100.00
9139;BME280;4604;48.616;9.548;2023-02-04T00:14:12;98098.22;;;5.79;100.00
9139;BME280;4604;48.616;9.548;2023-02-04T00:16:39;98102.41;;;5.66;100.00
9139;BME280;4604;48.616;9.548;2023-02-04T00:19:05;98112.78;;;5.67;100.00
9139;BME280;4604;48.616;9.548;2023-02-04T00:21:32;98102.69;;;5.77;100.00
9139;BME280;4604;48.616;9.548;2023-02-04T00:24:00;98098.44;;;5.74;100.00
9139;BME280;4604;48.616;9.548;2023-02-04T00:26:26;98099.44;;;5.72;100.00
9139;BME280;4604;48.616;9.548;2023-02-04T00:28:53;98093.44;;;5.70;100.00
9139;BME280;4604;48.616;9.548;2023-02-04T00:31:20;98098.81;;;5.84;100.00
9139;BME280;4604;48.616;9.548;2023-02-04T00:33:46;98101.25;;;5.87;100.00
9139;BME280;4604;48.616;9.548;2023-02-04T00:36:13;98104.22;;;5.81;100.00
9139;BME280;4604;48.616;9.548;2023-02-04T00:38:39;98096.66;;;5.75;100.00
9139;BME280;4604;48.616;9.548;2023-02-04T00:41:07;98097.69;;;5.72;100.00
9139;BME280;4604;48.616;9.548;2023-02-04T00:43:34;98111.78;;;5.70;100.00
9139;BME280;4604;48.616;9.548;2023-02-04T00:46:00;98100.47;;;5.69;100.00
9139;BME280;4604;48.616;9.548;2023-02-04T00:48:27;98112.13;;;5.64;100.00
9139;BME280;4604;48.616;9.548;2023-02-04T00:50:54;98102.53;;;5.63;100.00
9139;BME280;4604;48.616;9.548;2023-02-04T00:53:21;98099.41;;;5.56;100.00
9139;BME280;4604;48.616;9.548;2023-02-04T00:55:47;98110.16;;;5.67;100.00
9139;BME280;4604;48.616;9.548;2023-02-04T00:58:15;98115.69;;;5.78;100.00
9139;BME280;4604;48.616;9.548;2023-02-04T01:00:42;98109.09;;;5.71;100.00
9139;BME280;4604;48.616;9.548;2023-02-04T01:03:08;98125.66;;;5.72;100.00
9139;BME280;4604;48.616;9.548;2023-02-04T01:05:36;98128.16;;;5.91;100.00
9139;BME280;4604;48.616;9.548;2023-02-04T01:08:03;98119.78;;;5.84;100.00
9139;BME280;4604;48.616;9.548;2023-02-04T01:10:30;98130.78;;;5.91;100.00
9139;BME280;4604;48.616;9.548;2023-02-04T01:12:57;98131.66;;;5.74;100.00
9139;BME280;4604;48.616;9.548;2023-02-04T01:15:25;98135.56;;;5.83;100.00
9139;BME280;4604;48.616;9.548;2023-02-04T01:17:52;98138.19;;;5.83;100.00
9139;BME280;4604;48.616;9.548;2023-02-04T01:20:18;98142.56;;;5.82;100.00
9139;BME280;4604;48.616;9.548;2023-02-04T01:22:45;98137.34;;;5.82;100.00
9139;BME280;4604;48.616;9.548;2023-02-04T01:25:12;98143.59;;;5.79;100.00
9139;BME280;4604;48.616;9.548;2023-02-04T01:27:38;98137.34;;;5.82;100.00
9139;BME280;4604;48.616;9.548;2023-02-04T01:30:06;98135.25;;;5.89;100.00
9139;BME280;4604;48.616;9.548;2023-02-04T01:32:34;98139.66;;;5.88;100.00
9139;BME280;4604;48.616;9.548;2023-02-04T01:35:01;98148.81;;;5.97;100.00
9139;BME280;4604;48.616;9.548;2023-02-04T01:37:28;98150.66;;;5.95;100.00
9139;BME280;4604;48.616;9.548;2023-02-04T01:39:54;98148.91;;;5.95;100.00
9139;BME280;4604;48.616;9.548;2023-02-04T01:42:21;98156.22;;;6.06;100.00
9139;BME280;4604;48.616;9.548;2023-02-04T01:44:48;98165.91;;;6.04;100.00
9139;BME280;4604;48.616;9.548;2023-02-04T01:47:15;98167.59;;;6.22;100.00
9139;BME280;4604;48.616;9.548;2023-02-04T01:49:43;98165.06;;;6.04;100.00
9139;BME280;4604;48.616;9.548;2023-02-04T01:52:11;98167.94;;;5.99;100.00
9139;BME280;4604;48.616;9.548;2023-02-04T01:54:38;98165.78;;;6.07;100.00
9139;BME280;4604;48.616;9.548;2023-02-04T01:57:05;98162.53;;;6.02;100.00
9139;BME280;4604;48.616;9.548;2023-02-04T01:59:34;98160.25;;;5.96;100.00
9139;BME280;4604;48.616;9.548;2023-02-04T02:02:37;98165.16;;;5.85;100.00
9139;BME280;4604;48.616;9.548;2023-02-04T02:05:06;98165.00;;;5.88;100.00
9139;BME280;4604;48.616;9.548;2023-02-04T02:07:33;98173.72;;;5.88;100.00
9139;BME280;4604;48.616;9.548;2023-02-04T02:09:59;98177.63;;;5.79;100.00
9139;BME280;4604;48.616;9.548;2023-02-04T02:12:26;98171.38;;;5.82;100.00
9139;BME280;4604;48.616;9.548;2023-02-04T02:14:53;98173.84;;;5.85;100.00
9139;BME280;4604;48.616;9.548;2023-02-04T02:17:20;98192.88;;;5.89;100.00
9139;BME280;4604;48.616;9.548;2023-02-04T02:19:47;98178.50;;;5.97;100.00
9139;BME280;4604;48.616;9.548;2023-02-04T02:22:19;98185.31;;;5.83;100.00
9139;BME280;4604;48.616;9.548;2023-02-04T02:24:48;98198.81;;;5.92;100.00
9139;BME280;4604;48.616;9.548;2023-02-04T02:27:15;98201.44;;;5.92;100.00
9139;BME280;4604;48.616;9.548;2023-02-04T02:29:42;98192.19;;;5.85;100.00
9139;BME280;4604;48.616;9.548;2023-02-04T02:32:10;98188.28;;;5.94;100.00
9139;BME280;4604;48.616;9.548;2023-02-04T02:34:38;98183.66;;;5.82;100.00
9139;BME280;4604;48.616;9.548;2023-02-04T02:37:06;98197.19;;;5.90;100.00
9139;BME280;4604;48.616;9.548;2023-02-04T02:39:33;98198.13;;;5.89;100.00
9139;BME280;4604;48.616;9.548;2023-02-04T02:42:02;98202.22;;;5.94;100.00
9139;BME280;4604;48.616;9.548;2023-02-04T02:44:29;98202.22;;;5.94;100.00
9139;BME280;4604;48.616;9.548;2023-02-04T02:46:57;98197.13;;;5.91;100.00
9139;BME280;4604;48.616;9.548;2023-02-04T02:49:24;98203.94;;;5.95;100.00
9139;BME280;4604;48.616;9.548;2023-02-04T02:51:52;98204.84;;;5.94;100.00
9139;BME280;4604;48.616;9.548;2023-02-04T02:54:21;98196.34;;;5.89;100.00
9139;BME280;4604;48.616;9.548;2023-02-04T02:56:49;98216.63;;;5.86;100.00
9139;BME280;4604;48.616;9.548;2023-02-04T02:59:17;98216.47;;;5.89;100.00
9139;BME280;4604;48.616;9.548;2023-02-04T03:01:46;98229.81;;;5.84;100.00
9139;BME280;4604;48.616;9.548;2023-02-04T03:04:15;98230.97;;;5.78;100.00
9139;BME280;4604;48.616;9.548;2023-02-04T03:06:42;98241.13;;;5.85;100.00
9139;BME280;4604;48.616;9.548;2023-02-04T03:09:09;98232.41;;;5.84;100.00
9139;BME280;4604;48.616;9.548;2023-02-04T03:11:36;98228.56;;;5.74;100.00
9139;BME280;4604;48.616;9.548;2023-02-04T03:14:04;98241.22;;;5.83;100.00
9139;BME280;4604;48.616;9.548;2023-02-04T03:16:33;98231.25;;;5.72;100.00
9139;BME280;4604;48.616;9.548;2023-02-04T03:19:02;98247.38;;;5.82;100.00
9139;BME280;4604;48.616;9.548;2023-02-04T03:21:29;98249.75;;;5.87;100.00
9139;BME280;4604;48.616;9.548;2023-02-04T03:23:56;98242.06;;;5.84;100.00
9139;BME280;4604;48.616;9.548;2023-02-04T03:26:23;98251.81;;;5.80;100.00
9139;BME280;4604;48.616;9.548;2023-02-04T03:28:53;98246.53;;;5.82;100.00
9139;BME280;4604;48.616;9.548;2023-02-04T03:31:19;98249.97;;;5.82;100.00
9139;BME280;4604;48.616;9.548;2023-02-04T03:33:47;98253.44;;;5.83;100.00
9139;BME280;4604;48.616;9.548;2023-02-04T03:36:14;98258.47;;;5.87;100.00
9139;BME280;4604;48.616;9.548;2023-02-04T03:38:41;98264.28;;;5.94;100.00
9139;BME280;4604;48.616;9.548;2023-02-04T03:41:07;98272.94;;;5.77;100.00
9139;BME280;4604;48.616;9.548;2023-02-04T03:43:34;98281.97;;;5.71;100.00
9139;BME280;4604;48.616;9.548;2023-02-04T03:46:01;98281.59;;;5.79;100.00
9139;BME280;4604;48.616;9.548;2023-02-04T03:48:27;98280.25;;;5.70;100.00
9139;BME280;4604;48.616;9.548;2023-02-04T03:50:55;98285.38;;;5.73;100.00
9139;BME280;4604;48.616;9.548;2023-02-04T03:53:22;98293.72;;;5.63;100.00
9139;BME280;4604;48.616;9.548;2023-02-04T03:55:48;98294.44;;;5.66;100.00
9139;BME280;4604;48.616;9.548;2023-02-04T03:58:15;98296.44;;;5.61;100.00
9139;BME280;4604;48.616;9.548;2023-02-04T04:00:42;98289.22;;;5.66;100.00
9139;BME280;4604;48.616;9.548;2023-02-04T04:03:09;98296.13;;;5.67;100.00
9139;BME280;4604;48.616;9.548;2023-02-04T04:05:35;98297.91;;;5.67;100.00
9139;BME280;4604;48.616;9.548;2023-02-04T04:08:03;98299.81;;;5.63;100.00
9139;BME280;4604;48.616;9.548;2023-02-04T04:10:30;98289.22;;;5.66;100.00
9139;BME280;4604;48.616;9.548;2023-02-04T04:12:57;98284.56;;;5.54;100.00
9139;BME280;4604;48.616;9.548;2023-02-04T04:15:24;98291.25;;;5.60;100.00
9139;BME280;4604;48.616;9.548;2023-02-04T04:17:50;98290.69;;;5.53;100.00
9139;BME280;4604;48.616;9.548;2023-02-04T04:20:17;98286.19;;;5.56;100.00
9139;BME280;4604;48.616;9.548;2023-02-04T04:22:44;98288.88;;;5.55;100.00
9139;BME280;4604;48.616;9.548;2023-02-04T04:25:12;98287.09;;;5.55;100.00
9139;BME280;4604;48.616;9.548;2023-02-04T04:27:39;98285.00;;;5.45;100.00
9139;BME280;4604;48.616;9.548;2023-02-04T04:30:06;98286.78;;;5.44;100.00
9139;BME280;4604;48.616;9.548;2023-02-04T04:32:32;98287.47;;;5.29;100.00
9139;BME280;4604;48.616;9.548;2023-02-04T04:34:59;98293.13;;;5.39;100.00
9139;BME280;4604;48.616;9.548;2023-02-04T04:37:26;98279.56;;;5.30;100.00
9139;BME280;4604;48.616;9.548;2023-02-04T04:39:52;98288.34;;;5.29;100.00
9139;BME280;4604;48.616;9.548;2023-02-04T04:42:20;98291.66;;;5.33;100.00
9139;BME280;4604;48.616;9.548;2023-02-04T04:44:47;98300.09;;;5.40;100.00
9139;BME280;4604;48.616;9.548;2023-02-04T04:47:13;98310.91;;;5.32;100.00
9139;BME280;4604;48.616;9.548;2023-02-04T04:49:40;98311.63;;;5.35;100.00
9139;BME280;4604;48.616;9.548;2023-02-04T04:52:07;98308.22;;;5.33;100.00
9139;BME280;4604;48.616;9.548;2023-02-04T04:54:34;98305.75;;;5.30;100.00
9139;BME280;4604;48.616;9.548;2023-02-04T04:57:01;98302.28;;;5.30;100.00
9139;BME280;4604;48.616;9.548;2023-02-04T04:59:29;98313.06;;;5.41;100.00
9139;BME280;4604;48.616;9.548;2023-02-04T05:01:56;98319.78;;;5.29;100.00
9139;BME280;4604;48.616;9.548;2023-02-04T05:04:22;98318.84;;;5.30;100.00
9139;BME280;4604;48.616;9.548;2023-02-04T05:06:49;98315.66;;;5.24;100.00
9139;BME280;4604;48.616;9.548;2023-02-04T05:09:15;98315.75;;;5.22;100.00
9139;BME280;4604;48.616;9.548;2023-02-04T05:11:42;98319.78;;;5.29;100.00
9139;BME280;4604;48.616;9.548;2023-02-04T05:14:09;98324.22;;;5.27;100.00
9139;BME280;4604;48.616;9.548;2023-02-04T05:16:37;98314.97;;;5.20;100.00
9139;BME280;4604;48.616;9.548;2023-02-04T05:19:03;98319.97;;;5.25;100.00
9139;BME280;4604;48.616;9.548;2023-02-04T05:21:30;98321.81;;;5.23;100.00
9139;BME280;4604;48.616;9.548;2023-02-04T05:23:56;98325.47;;;5.19;100.00
9139;BME280;4604;48.616;9.548;2023-02-04T05:26:23;98325.44;;;5.20;100.00
9139;BME280;4604;48.616;9.548;2023-02-04T05:28:51;98316.63;;;5.21;100.00
9139;BME280;4604;48.616;9.548;2023-02-04T05:31:18;98321.88;;;5.21;100.00
9139;BME280;4604;48.616;9.548;2023-02-04T05:33:46;98313.03;;;5.24;100.00
9139;BME280;4604;48.616;9.548;2023-02-04T05:36:12;98325.69;;;5.14;100.00
9139;BME280;4604;48.616;9.548;2023-02-04T05:38:39;98329.25;;;5.13;100.00
9139;BME280;4604;48.616;9.548;2023-02-04T05:41:05;98328.88;;;5.21;100.00
9139;BME280;4604;48.616;9.548;2023-02-04T05:43:32;98335.81;;;5.22;100.00
9139;BME280;4604;48.616;9.548;2023-02-04T05:45:59;98341.56;;;5.30;100.00
9139;BME280;4604;48.616;9.548;2023-02-04T05:48:26;98344.31;;;5.27;100.00
9139;BME280;4604;48.616;9.548;2023-02-04T05:50:54;98343.75;;;5.20;100.00
9139;BME280;4604;48.616;9.548;2023-02-04T05:53:21;98343.16;;;5.13;100.00
9139;BME280;4604;48.616;9.548;2023-02-04T05:55:47;98346.72;;;5.12;100.00
9139;BME280;4604;48.616;9.548;2023-02-04T05:58:14;98360.66;;;5.13;100.00
9139;BME280;4604;48.616;9.548;2023-02-04T06:00:40;98352.50;;;5.19;100.00
9139;BME280;4604;48.616;9.548;2023-02-04T06:03:07;98360.00;;;5.08;100.00
9139;BME280;4604;48.616;9.548;2023-02-04T06:05:34;98360.06;;;5.06;100.00
9139;BME280;4604;48.616;9.548;2023-02-04T06:08:02;98355.34;;;5.14;100.00
9139;BME280;4604;48.616;9.548;2023-02-04T06:10:29;98348.75;;;5.06;100.00
9139;BME280;4604;48.616;9.548;2023-02-04T06:12:55;98356.31;;;4.93;100.00
9139;BME280;4604;48.616;9.548;2023-02-04T06:15:22;98358.06;;;4.92;100.00
9139;BME280;4604;48.616;9.548;2023-02-04T06:17:48;98367.47;;;4.97;100.00
9139;BME280;4604;48.616;9.548;2023-02-04T06:20:15;98366.44;;;5.01;100.00
9139;BME280;4604;48.616;9.548;2023-02-04T06:22:42;98366.50;;;4.99;100.00
9139;BME280;4604;48.616;9.548;2023-02-04T06:25:10;98378.47;;;5.05;100.00
9139;BME280;4604;48.616;9.548;2023-02-04T06:27:37;98367.44;;;4.98;100.00
9139;BME280;4604;48.616;9.548;2023-02-04T06:30:04;98382.03;;;5.02;100.00
9139;BME280;4604;48.616;9.548;2023-02-04T06:32:31;98389.78;;;5.05;100.00
9139;BME280;4604;48.616;9.548;2023-02-04T06:34:57;98385.88;;;5.14;100.00
9139;BME280;4604;48.616;9.548;2023-02-04T06:37:24;98380.00;;;5.09;100.00
9139;BME280;4604;48.616;9.548;2023-02-04T06:39:50;98402.72;;;5.08;100.00
9139;BME280;4604;48.616;9.548;2023-02-04T06:42:20;98401.03;;;5.07;100.00
9139;BME280;4604;48.616;9.548;2023-02-04T06:44:46;98402.56;;;5.11;100.00
9139;BME280;4604;48.616;9.548;2023-02-04T06:47:13;98400.38;;;5.02;100.00
9139;BME280;4604;48.616;9.548;2023-02-04T06:49:39;98408.22;;;5.02;100.00
9139;BME280;4604;48.616;9.548;2023-02-04T06:52:07;98406.38;;;5.04;100.00
9139;BME280;4604;48.616;9.548;2023-02-04T06:54:33;98410.31;;;5.14;100.00
9139;BME280;4604;48.616;9.548;2023-02-04T06:57:00;98404.28;;;5.12;100.00
9139;BME280;4604;48.616;9.548;2023-02-04T06:59:32;98407.81;;;5.11;100.00
9139;BME280;4604;48.616;9.548;2023-02-04T07:01:59;98412.25;;;5.09;100.00
9139;BME280;4604;48.616;9.548;2023-02-04T07:04:25;98428.31;;;5.02;100.00
9139;BME280;4604;48.616;9.548;2023-02-04T07:06:52;98421.53;;;4.98;100.00
9139;BME280;4604;48.616;9.548;2023-02-04T07:09:19;98431.91;;;4.99;100.00
9139;BME280;4604;48.616;9.548;2023-02-04T07:11:46;98436.34;;;4.97;100.00
9139;BME280;4604;48.616;9.548;2023-02-04T07:14:12;98436.50;;;4.94;100.00
9139;BME280;4604;48.616;9.548;2023-02-04T07:16:40;98438.75;;;5.02;100.00
9139;BME280;4604;48.616;9.548;2023-02-04T07:19:07;98443.16;;;5.01;100.00
9139;BME280;4604;48.616;9.548;2023-02-04T07:21:34;98450.22;;;4.99;100.00
9139;BME280;4604;48.616;9.548;2023-02-04T07:24:00;98446.56;;;5.03;100.00
9139;BME280;4604;48.616;9.548;2023-02-04T07:26:27;98457.16;;;5.00;100.00
9139;BME280;4604;48.616;9.548;2023-02-04T07:28:54;98454.22;;;5.08;100.00
9139;BME280;4604;48.616;9.548;2023-02-04T07:31:21;98457.03;;;5.03;100.00
9139;BME280;4604;48.616;9.548;2023-02-04T07:33:48;98467.16;;;5.11;100.00
9139;BME280;4604;48.616;9.548;2023-02-04T07:36:15;98463.75;;;5.09;100.00
9139;BME280;4604;48.616;9.548;2023-02-04T07:38:42;98476.91;;;5.07;100.00
9139;BME280;4604;48.616;9.548;2023-02-04T07:41:08;98483.66;;;5.13;100.00
9139;BME280;4604;48.616;9.548;2023-02-04T07:43:35;98489.13;;;5.07;100.00
9139;BME280;4604;48.616;9.548;2023-02-04T07:46:02;98500.47;;;5.07;100.00
9139;BME280;4604;48.616;9.548;2023-02-04T07:48:28;98491.63;;;5.10;100.00
9139;BME280;4604;48.616;9.548;2023-02-04T07:50:56;98499.53;;;5.08;100.00
9139;BME280;4604;48.616;9.548;2023-02-04T07:53:23;98501.31;;;5.08;100.00
9139;BME280;4604;48.616;9.548;2023-02-04T07:55:50;98498.75;;;5.06;100.00
9139;BME280;4604;48.616;9.548;2023-02-04T07:58:17;98515.94;;;5.12;100.00
9139;BME280;4604;48.616;9.548;2023-02-04T08:00:43;98515.25;;;5.08;100.00
9139;BME280;4604;48.616;9.548;2023-02-04T08:03:10;98507.41;;;5.08;100.00
9139;BME280;4604;48.616;9.548;2023-02-04T08:05:37;98506.88;;;5.21;100.00
9139;BME280;4604;48.616;9.548;2023-02-04T08:08:05;98515.34;;;5.26;100.00
9139;BME280;4604;48.616;9.548;2023-02-04T08:10:31;98524.06;;;5.26;100.00
9139;BME280;4604;48.616;9.548;2023-02-04T08:12:58;98527.28;;;5.33;100.00
9139;BME280;4604;48.616;9.548;2023-02-04T08:15:25;98523.16;;;5.27;100.00
9139;BME280;4604;48.616;9.548;2023-02-04T08:17:51;98528.31;;;5.29;100.00
9139;BME280;4604;48.616;9.548;2023-02-04T08:20:18;98526.44;;;5.32;100.00
9139;BME280;4604;48.616;9.548;2023-02-04T08:22:44;98534.53;;;5.47;100.00
9139;BME280;4604;48.616;9.548;2023-02-04T08:25:12;98524.16;;;5.64;100.00
9139;BME280;4604;48.616;9.548;2023-02-04T08:27:39;98534.25;;;5.53;100.00
9139;BME280;4604;48.616;9.548;2023-02-04T08:30:07;98536.84;;;5.53;100.00
9139;BME280;4604;48.616;9.548;2023-02-04T08:32:34;98537.44;;;5.60;100.00
9139;BME280;4604;48.616;9.548;2023-02-04T08:35:01;98542.47;;;5.64;100.00
9139;BME280;4604;48.616;9.548;2023-02-04T08:37:27;98545.88;;;5.66;100.00
9139;BME280;4604;48.616;9.548;2023-02-04T08:39:54;98549.72;;;5.78;100.00
9139;BME280;4604;48.616;9.548;2023-02-04T08:42:22;98555.72;;;6.00;100.00
9139;BME280;4604;48.616;9.548;2023-02-04T08:44:49;98555.63;;;6.02;100.00
9139;BME280;4604;48.616;9.548;2023-02-04T08:47:16;98559.34;;;5.98;100.00
9139;BME280;4604;48.616;9.548;2023-02-04T08:49:42;98560.38;;;5.94;100.00
9139;BME280;4604;48.616;9.548;2023-02-04T08:52:09;98570.88;;;5.94;100.00
9139;BME280;4604;48.616;9.548;2023-02-04T08:54:35;98568.53;;;6.07;100.00
9139;BME280;4604;48.616;9.548;2023-02-04T08:57:02;98574.56;;;6.09;100.00
9139;BME280;4604;48.616;9.548;2023-02-04T08:59:30;98567.84;;;6.03;100.00
9139;BME280;4604;48.616;9.548;2023-02-04T09:01:57;98559.03;;;6.04;100.00
9139;BME280;4604;48.616;9.548;2023-02-04T09:04:23;98560.59;;;6.08;100.00
9139;BME280;4604;48.616;9.548;2023-02-04T09:06:50;98562.72;;;6.19;98.26
9139;BME280;4604;48.616;9.548;2023-02-04T09:09:17;98565.28;;;6.39;91.94
9139;BME280;4604;48.616;9.548;2023-02-04T09:11:44;98573.56;;;6.30;91.84
9139;BME280;4604;48.616;9.548;2023-02-04T09:14:10;98577.25;;;6.26;93.48
9139;BME280;4604;48.616;9.548;2023-02-04T09:16:39;98577.19;;;6.28;93.65
9139;BME280;4604;48.616;9.548;2023-02-04T09:19:05;98580.06;;;6.21;95.21
9139;BME280;4604;48.616;9.548;2023-02-04T09:21:35;98581.69;;;6.24;95.29
9139;BME280;4604;48.616;9.548;2023-02-04T09:24:02;98580.59;;;6.30;94.96
9139;BME280;4604;48.616;9.548;2023-02-04T09:26:28;98588.94;;;6.38;92.29
9139;BME280;4604;48.616;9.548;2023-02-04T09:28:55;98596.66;;;6.41;90.46
9139;BME280;4604;48.616;9.548;2023-02-04T09:31:21;98588.31;;;6.33;90.09
9139;BME280;4604;48.616;9.548;2023-02-04T09:33:49;98597.00;;;6.33;89.33
9139;BME280;4604;48.616;9.548;2023-02-04T09:36:16;98602.84;;;6.40;90.05
9139;BME280;4604;48.616;9.548;2023-02-04T09:38:42;98603.53;;;6.43;90.50
9139;BME280;4604;48.616;9.548;2023-02-04T09:41:10;98610.81;;;6.56;89.60
9139;BME280;4604;48.616;9.548;2023-02-04T09:43:40;98620.03;;;6.64;87.18
9139;BME280;4604;48.616;9.548;2023-02-04T09:46:08;98613.00;;;6.65;85.94
9139;BME280;4604;48.616;9.548;2023-02-04T09:48:40;98620.66;;;6.70;83.44
9139;BME280;4604;48.616;9.548;2023-02-04T09:51:11;98619.19;;;6.64;84.06
9139;BME280;4604;48.616;9.548;2023-02-04T09:53:40;98624.59;;;6.61;84.38
9139;BME280;4604;48.616;9.548;2023-02-04T09:56:08;98623.88;;;6.57;84.96
9139;BME280;4604;48.616;9.548;2023-02-04T09:58:35;98621.25;;;6.57;83.46
9139;BME280;4604;48.616;9.548;2023-02-04T10:01:08;98623.09;;;6.55;83.69
9139;BME280;4604;48.616;9.548;2023-02-04T10:03:39;98633.72;;;6.52;83.05
9139;BME280;4604;48.616;9.548;2023-02-04T10:06:12;98629.34;;;6.53;83.29
9139;BME280;4604;48.616;9.548;2023-02-04T10:08:40;98627.91;;;6.64;84.50
9139;BME280;4604;48.616;9.548;2023-02-04T10:11:07;98626.56;;;6.56;84.44
9139;BME280;4604;48.616;9.548;2023-02-04T10:13:37;98632.09;;;6.50;85.32
9139;BME280;4604;48.616;9.548;2023-02-04T10:16:13;98631.16;;;6.51;85.42
9139;BME280;4604;48.616;9.548;2023-02-04T10:18:40;98629.91;;;6.59;85.47
9139;BME280;4604;48.616;9.548;2023-02-04T10:21:14;98636.19;;;6.74;82.52
9139;BME280;4604;48.616;9.548;2023-02-04T10:23:43;98615.00;;;6.60;82.08
9139;BME280;4604;48.616;9.548;2023-02-04T10:26:12;98633.91;;;6.85;80.81
9139;BME280;4604;48.616;9.548;2023-02-04T10:28:39;98626.75;;;6.70;81.16
9139;BME280;4604;48.616;9.548;2023-02-04T10:31:09;98612.94;;;6.67;80.71
9139;BME280;4604;48.616;9.548;2023-02-04T10:34:02;98621.88;;;6.62;81.94
9139;BME280;4604;48.616;9.548;2023-02-04T10:36:30;98616.94;;;6.56;81.62
9139;BME280;4604;48.616;9.548;2023-02-04T10:39:00;98607.94;;;6.43;82.46
9139;BME280;4604;48.616;9.548;2023-02-04T10:41:26;98615.56;;;6.67;79.86
9139;BME280;4604;48.616;9.548;2023-02-04T10:44:01;98622.44;;;6.69;78.77
9139;BME280;4604;48.616;9.548;2023-02-04T10:46:29;98621.28;;;6.75;79.78
9139;BME280;4604;48.616;9.548;2023-02-04T10:48:55;98609.38;;;6.68;79.90
9139;BME280;4604;48.616;9.548;2023-02-04T10:51:22;98618.06;;;6.87;78.54
9139;BME280;4604;48.616;9.548;2023-02-04T10:53:50;98609.13;;;6.91;78.67
9139;BME280;4604;48.616;9.548;2023-02-04T10:56:35;98607.00;;;7.17;73.73
9139;BME280;4604;48.616;9.548;2023-02-04T10:59:01;98610.41;;;7.19;73.01
9139;BME280;4604;48.616;9.548;2023-02-04T11:01:28;98613.56;;;7.08;73.82
9139;BME280;4604;48.616;9.548;2023-02-04T11:03:55;98614.41;;;7.08;73.69
9139;BME280;4604;48.616;9.548;2023-02-04T11:06:23;98611.72;;;7.10;74.03
9139;BME280;4604;48.616;9.548;2023-02-04T11:08:51;98603.81;;;6.93;75.15
9139;BME280;4604;48.616;9.548;2023-02-04T11:11:22;98621.66;;;7.03;75.10
9139;BME280;4604;48.616;9.548;2023-02-04T11:13:58;98623.31;;;6.87;75.21
9139;BME280;4604;48.616;9.548;2023-02-04T11:16:26;98624.25;;;6.86;75.40
9139;BME280;4604;48.616;9.548;2023-02-04T11:18:56;98610.75;;;6.94;74.84
9139;BME280;4604;48.616;9.548;2023-02-04T11:21:26;98611.41;;;6.80;74.41
9139;BME280;4604;48.616;9.548;2023-02-04T11:24:19;98601.94;;;6.77;75.65
9139;BME280;4604;48.616;9.548;2023-02-04T11:26:47;98610.88;;;7.10;75.61
9139;BME280;4604;48.616;9.548;2023-02-04T11:29:29;98605.63;;;7.10;74.39
9139;BME280;4604;48.616;9.548;2023-02-04T11:32:02;98609.31;;;7.23;74.74
9139;BME280;4604;48.616;9.548;2023-02-04T11:34:35;98612.13;;;7.20;74.73
9139;BME280;4604;48.616;9.548;2023-02-04T11:37:32;98606.16;;;7.16;75.86
9139;BME280;4604;48.616;9.548;2023-02-04T11:40:13;98608.25;;;7.27;75.43
9139;BME280;4604;48.616;9.548;2023-02-04T11:42:46;98609.72;;;7.50;71.45
9139;BME280;4604;48.616;9.548;2023-02-04T11:45:15;98605.41;;;7.49;70.67
9139;BME280;4604;48.616;9.548;2023-02-04T11:47:43;98613.28;;;7.49;70.08
9139;BME280;4604;48.616;9.548;2023-02-04T11:50:16;98604.78;;;7.44;71.49
9139;BME280;4604;48.616;9.548;2023-02-04T11:52:45;98607.25;;;7.29;72.25
9139;BME280;4604;48.616;9.548;2023-02-04T11:55:13;98605.75;;;7.24;73.54
9139;BME280;4604;48.616;9.548;2023-02-04T11:57:41;98605.47;;;7.30;75.10
9139;BME280;4604;48.616;9.548;2023-02-04T12:00:16;98599.88;;;7.36;72.83
9139;BME280;4604;48.616;9.548;2023-02-04T12:02:45;98605.31;;;7.33;70.86
9139;BME280;4604;48.616;9.548;2023-02-04T12:05:14;98601.38;;;7.42;71.42
9139;BME280;4604;48.616;9.548;2023-02-04T12:07:41;98603.22;;;7.40;71.70
9139;BME280;4604;48.616;9.548;2023-02-04T12:10:21;98602.69;;;7.33;72.45
9139;BME280;4604;48.616;9.548;2023-02-04T12:12:50;98604.84;;;7.25;72.98
9139;BME280;4604;48.616;9.548;2023-02-04T12:15:21;98605.47;;;7.13;74.59
9139;BME280;4604;48.616;9.548;2023-02-04T12:17:59;98604.69;;;7.11;76.09
9139;BME280;4604;48.616;9.548;2023-02-04T12:20:26;98609.59;;;6.99;75.69
9139;BME280;4604;48.616;9.548;2023-02-04T12:22:53;98608.97;;;6.94;76.71
9139;BME280;4604;48.616;9.548;2023-02-04T12:25:21;98612.38;;;6.96;76.07
9139;BME280;4604;48.616;9.548;2023-02-04T12:27:47;98619.63;;;6.91;75.72
9139;BME280;4604;48.616;9.548;2023-02-04T12:30:14;98617.19;;;6.69;77.59
9139;BME280;4604;48.616;9.548;2023-02-04T12:32:42;98623.75;;;6.78;77.38
9139;BME280;4604;48.616;9.548;2023-02-04T12:35:09;98631.28;;;6.85;76.54
9139;BME280;4604;48.616;9.548;2023-02-04T12:37:36;98625.66;;;6.93;76.25
9139;BME280;4604;48.616;9.548;2023-02-04T12:40:03;98627.78;;;6.85;75.94
9139;BME280;4604;48.616;9.548;2023-02-04T12:42:31;98629.97;;;6.94;76.31
9139;BME280;4604;48.616;9.548;2023-02-04T12:44:57;98625.09;;;6.86;76.94
9139;BME280;4604;48.616;9.548;2023-02-04T12:47:24;98622.03;;;6.96;75.51
9139;BME280;4604;48.616;9.548;2023-02-04T12:49:51;98630.56;;;6.82;76.45
9139;BME280;4604;48.616;9.548;2023-02-04T12:52:18;98634.59;;;6.89;77.66
9139;BME280;4604;48.616;9.548;2023-02-04T12:54:44;98634.84;;;7.02;75.25
9139;BME280;4604;48.616;9.548;2023-02-04T12:57:11;98629.97;;;6.94;75.24
9139;BME280;4604;48.616;9.548;2023-02-04T12:59:45;98629.31;;;7.08;75.36
9139;BME280;4604;48.616;9.548;2023-02-04T13:02:12;98627.94;;;7.18;76.21
9139;BME280;4604;48.616;9.548;2023-02-04T13:04:38;98633.78;;;7.06;76.31
9139;BME280;4604;48.616;9.548;2023-02-04T13:07:05;98636.41;;;7.06;75.41
9139;BME280;4604;48.616;9.548;2023-02-04T13:09:32;98640.59;;;7.10;76.58
9139;BME280;4604;48.616;9.548;2023-02-04T13:11:59;98636.44;;;7.23;76.93
9139;BME280;4604;48.616;9.548;2023-02-04T13:14:26;98637.69;;;6.97;78.38
9139;BME280;4604;48.616;9.548;2023-02-04T13:16:53;98634.31;;;6.95;79.47
9139;BME280;4604;48.616;9.548;2023-02-04T13:19:20;98635.84;;;6.99;78.72
9139;BME280;4604;48.616;9.548;2023-02-04T13:21:47;98642.00;;;6.81;80.08
9139;BME280;4604;48.616;9.548;2023-02-04T13:24:13;98631.53;;;6.98;79.56
9139;BME280;4604;48.616;9.548;2023-02-04T13:26:41;98633.13;;;6.83;80.53
9139;BME280;4604;48.616;9.548;2023-02-04T13:29:07;98641.56;;;6.90;80.46